createdAt,value
2023-04-10T00:01:26.962Z,17.44
2023-04-10T00:03:58.406Z,17.38
2023-04-10T00:06:29.866Z,17.47
2023-04-10T00:09:01.021Z,17.51
2023-04-10T00:11:32.066Z,17.64
2023-04-10T00:14:03.816Z,17.58
2023-04-10T00:16:35.444Z,17.55
2023-04-10T00:19:06.028Z,17.50
2023-04-10T00:21:36.473Z,17.48
2023-04-10T00:24:07.273Z,17.54
2023-04-10T00:26:38.876Z,17.60
2023-04-10T00:29:09.796Z,17.51
2023-04-10T00:31:41.016Z,17.46
2023-04-10T00:34:12.131Z,17.46
2023-04-10T00:36:43.179Z,17.48
2023-04-10T00:39:14.335Z,17.49
2023-04-10T00:41:45.062Z,17.54
2023-04-10T00:44:15.448Z,17.58
2023-04-10T00:46:46.064Z,17.59
2023-04-10T00:49:16.351Z,17.57
2023-04-10T00:51:46.959Z,17.58
2023-04-10T00:54:17.640Z,17.56
2023-04-10T00:56:51.787Z,17.57
2023-04-10T00:59:23.152Z,17.61
2023-04-10T01:01:54.156Z,17.68
2023-04-10T01:04:25.631Z,17.75
2023-04-10T01:07:08.569Z,17.75
2023-04-10T01:10:04.993Z,17.75
2023-04-10T01:12:57.534Z,17.79
2023-04-10T01:15:31.403Z,17.82
2023-04-10T01:18:19.054Z,17.78
2023-04-10T01:20:49.540Z,17.77
2023-04-10T01:23:56.680Z,17.80
2023-04-10T01:26:53.163Z,17.83
2023-04-10T01:29:28.379Z,17.84
2023-04-10T01:32:16.040Z,17.82
2023-04-10T01:34:49.832Z,17.87
2023-04-10T01:37:25.628Z,17.84
2023-04-10T01:40:08.687Z,17.81
2023-04-10T01:42:54.576Z,17.73
2023-04-10T01:45:31.210Z,17.73
2023-04-10T01:48:02.689Z,17.72
2023-04-10T01:50:34.657Z,17.75
2023-04-10T01:53:08.493Z,17.74
2023-04-10T01:55:40.950Z,17.75
2023-04-10T01:58:13.776Z,17.78
2023-04-10T02:00:46.088Z,17.84
2023-04-10T02:03:17.665Z,17.90
2023-04-10T02:06:09.325Z,18.02
2023-04-10T02:08:44.543Z,18.00
2023-04-10T02:11:33.325Z,18.02
2023-04-10T02:14:09.600Z,18.02
2023-04-10T02:16:42.323Z,17.96
2023-04-10T02:19:16.062Z,17.99
2023-04-10T02:21:48.674Z,17.93
2023-04-10T02:24:19.221Z,17.93
2023-04-10T02:26:51.055Z,17.98
2023-04-10T02:29:22.318Z,17.99
2023-04-10T02:31:53.010Z,17.94
2023-04-10T02:34:23.382Z,17.94
2023-04-10T02:36:54.166Z,17.95
2023-04-10T02:39:24.808Z,17.94
2023-04-10T02:41:55.427Z,17.96
2023-04-10T02:44:26.174Z,17.94
2023-04-10T02:46:57.220Z,17.95
2023-04-10T02:49:28.771Z,17.97
2023-04-10T02:52:00.254Z,17.97
2023-04-10T02:54:30.700Z,18.00
2023-04-10T02:57:01.925Z,18.02
2023-04-10T02:59:32.483Z,18.03
2023-04-10T03:02:04.013Z,18.04
2023-04-10T03:04:37.667Z,18.04
2023-04-10T03:07:08.225Z,18.04
2023-04-10T03:09:41.104Z,18.06
2023-04-10T03:12:11.753Z,18.05
2023-04-10T03:14:42.992Z,18.07
2023-04-10T03:17:13.797Z,18.07
2023-04-10T03:19:44.292Z,18.12
2023-04-10T03:22:15.086Z,18.14
2023-04-10T03:24:46.251Z,18.16
2023-04-10T03:27:17.529Z,18.20
2023-04-10T03:29:48.138Z,18.20
2023-04-10T03:32:18.432Z,18.20
2023-04-10T03:34:49.125Z,18.29
2023-04-10T03:37:20.667Z,18.30
2023-04-10T03:39:51.479Z,18.31
2023-04-10T03:42:22.164Z,18.31
2023-04-10T03:44:53.342Z,18.29
2023-04-10T03:47:23.887Z,18.34
2023-04-10T03:49:56.101Z,18.37
2023-04-10T03:52:27.667Z,18.30
2023-04-10T03:54:59.300Z,18.26
2023-04-10T03:57:31.135Z,18.27
2023-04-10T04:00:07.484Z,18.23
2023-04-10T04:02:53.445Z,18.22
2023-04-10T04:05:58.781Z,18.21
2023-04-10T04:08:53.848Z,18.18
2023-04-10T04:11:41.948Z,18.19
2023-04-10T04:14:40.013Z,18.19
2023-04-10T04:17:29.748Z,18.22
2023-04-10T04:20:10.280Z,18.19
2023-04-10T04:22:47.797Z,18.19
2023-04-10T04:25:36.221Z,18.19
2023-04-10T04:28:19.016Z,18.18
2023-04-10T04:31:09.662Z,18.20
2023-04-10T04:33:58.184Z,18.21
2023-04-10T04:36:46.454Z,18.20
2023-04-10T04:39:46.357Z,18.16
2023-04-10T04:42:26.017Z,18.14
2023-04-10T04:45:26.355Z,18.16
2023-04-10T04:48:19.783Z,18.14
2023-04-10T04:51:19.030Z,18.13
2023-04-10T04:53:58.682Z,18.14
2023-04-10T04:56:48.520Z,18.13
2023-04-10T04:59:32.930Z,18.15
2023-04-10T05:02:17.703Z,18.14
2023-04-10T05:05:05.841Z,18.13
2023-04-10T05:08:02.418Z,18.13
2023-04-10T05:10:52.872Z,18.14
2023-04-10T05:13:40.820Z,18.14
2023-04-10T05:16:38.274Z,18.15
2023-04-10T05:19:20.669Z,18.15
2023-04-10T05:21:53.675Z,18.16
2023-04-10T05:24:36.728Z,18.15
2023-04-10T05:27:19.936Z,18.16
2023-04-10T05:30:22.335Z,18.16
2023-04-10T05:33:25.105Z,18.16
2023-04-10T05:36:15.015Z,18.17
2023-04-10T05:39:01.839Z,18.19
2023-04-10T05:41:50.652Z,18.16
2023-04-10T05:44:48.148Z,18.16
2023-04-10T05:47:48.602Z,18.17
2023-04-10T05:50:30.574Z,18.20
2023-04-10T05:53:34.322Z,18.18
2023-04-10T05:56:07.905Z,18.19
2023-04-10T05:59:10.379Z,18.17
2023-04-10T06:02:20.660Z,18.19
2023-04-10T06:04:52.493Z,18.19
2023-04-10T06:07:23.809Z,18.20
2023-04-10T06:09:54.217Z,18.23
2023-04-10T06:12:25.061Z,18.22
2023-04-10T06:14:56.126Z,18.22
2023-04-10T06:17:27.426Z,18.24
2023-04-10T06:19:58.349Z,18.23
2023-04-10T06:22:30.159Z,18.24
2023-04-10T06:25:01.249Z,18.25
2023-04-10T06:27:31.891Z,18.38
2023-04-10T06:30:02.797Z,18.45
2023-04-10T06:32:33.519Z,18.51
2023-04-10T06:35:04.412Z,18.57
2023-04-10T06:37:35.095Z,18.68
2023-04-10T06:40:17.988Z,18.72
2023-04-10T06:42:48.487Z,18.95
2023-04-10T06:45:32.056Z,19.12
2023-04-10T06:48:02.506Z,19.18
2023-04-10T06:50:33.547Z,19.10
2023-04-10T06:53:04.072Z,19.14
2023-04-10T06:55:34.448Z,19.24
2023-04-10T06:58:04.803Z,19.21
2023-04-10T07:00:35.209Z,19.24
2023-04-10T07:03:05.950Z,19.33
2023-04-10T07:05:40.827Z,19.30
2023-04-10T07:08:13.375Z,19.40
2023-04-10T07:10:43.612Z,19.46
2023-04-10T07:13:13.966Z,19.49
2023-04-10T07:15:44.396Z,19.45
2023-04-10T07:18:15.315Z,19.40
2023-04-10T07:20:45.669Z,19.55
2023-04-10T07:23:16.231Z,19.56
2023-04-10T07:25:46.535Z,19.56
2023-04-10T07:28:16.893Z,19.67
2023-04-10T07:30:48.111Z,19.72
2023-04-10T07:33:19.571Z,19.77
2023-04-10T07:35:50.085Z,19.82
2023-04-10T07:38:20.931Z,19.84
2023-04-10T07:40:51.420Z,19.88
2023-04-10T07:43:21.951Z,19.85
2023-04-10T07:45:52.461Z,19.88
2023-04-10T07:48:23.220Z,19.83
2023-04-10T07:50:53.515Z,19.95
2023-04-10T07:53:23.966Z,19.96
2023-04-10T07:55:55.042Z,20.08
2023-04-10T07:58:25.385Z,20.05
2023-04-10T08:00:56.286Z,19.90
2023-04-10T08:03:29.223Z,19.80
2023-04-10T08:05:59.743Z,19.76
2023-04-10T08:08:30.376Z,19.66
2023-04-10T08:11:00.888Z,19.59
2023-04-10T08:13:31.333Z,19.56
2023-04-10T08:16:02.750Z,19.57
2023-04-10T08:18:33.238Z,19.47
2023-04-10T08:21:03.715Z,19.48
2023-04-10T08:23:34.864Z,19.41
2023-04-10T08:26:05.146Z,19.39
2023-04-10T08:28:35.480Z,19.41
2023-04-10T08:31:06.004Z,19.41
2023-04-10T08:33:37.405Z,19.34
2023-04-10T08:36:08.213Z,19.30
2023-04-10T08:38:38.827Z,19.31
2023-04-10T08:41:11.808Z,19.28
2023-04-10T08:43:42.557Z,19.26
2023-04-10T08:46:13.515Z,19.27
2023-04-10T08:49:04.350Z,19.21
2023-04-10T08:52:14.641Z,19.20
2023-04-10T08:54:50.277Z,19.18
2023-04-10T08:57:22.477Z,19.15
2023-04-10T08:59:53.579Z,19.15
2023-04-10T09:02:25.001Z,19.12
2023-04-10T09:04:57.838Z,19.11
2023-04-10T09:07:29.190Z,19.10
2023-04-10T09:09:59.605Z,19.06
2023-04-10T09:12:29.962Z,19.06
2023-04-10T09:15:00.642Z,19.02
2023-04-10T09:17:31.362Z,19.01
2023-04-10T09:20:01.883Z,19.01
2023-04-10T09:22:34.293Z,18.97
2023-04-10T09:25:06.471Z,18.97
2023-04-10T09:27:40.020Z,18.95
2023-04-10T09:30:10.892Z,18.92
2023-04-10T09:32:46.060Z,18.91
2023-04-10T09:35:17.790Z,18.89
2023-04-10T09:37:48.543Z,18.86
2023-04-10T09:40:25.903Z,18.86
2023-04-10T09:42:59.877Z,18.81
2023-04-10T09:45:49.683Z,18.78
2023-04-10T09:48:20.870Z,18.77
2023-04-10T09:50:51.603Z,18.75
2023-04-10T09:53:23.384Z,18.74
2023-04-10T09:55:53.823Z,18.72
2023-04-10T09:58:26.829Z,18.70
2023-04-10T10:00:57.441Z,18.69
2023-04-10T10:03:28.639Z,18.64
2023-04-10T10:05:59.137Z,18.64
2023-04-10T10:08:29.805Z,18.63
2023-04-10T10:11:02.432Z,18.62
2023-04-10T10:13:32.837Z,18.59
2023-04-10T10:16:17.477Z,18.57
2023-04-10T10:19:03.479Z,18.54
2023-04-10T10:21:35.880Z,18.54
2023-04-10T10:24:11.121Z,18.54
2023-04-10T10:26:46.218Z,18.52
2023-04-10T10:29:20.034Z,18.51
2023-04-10T10:31:51.164Z,18.49
2023-04-10T10:34:23.316Z,18.46
2023-04-10T10:36:53.793Z,18.45
2023-04-10T10:39:27.324Z,18.44
2023-04-10T10:42:19.517Z,18.43
2023-04-10T10:45:19.034Z,18.40
2023-04-10T10:47:55.314Z,18.40
2023-04-10T10:50:25.786Z,18.38
2023-04-10T10:53:00.421Z,18.36
2023-04-10T10:55:37.208Z,18.34
2023-04-10T10:58:10.407Z,18.32
2023-04-10T11:00:56.457Z,18.30
2023-04-10T11:03:27.074Z,18.31
2023-04-10T11:06:13.856Z,18.30
2023-04-10T11:08:49.536Z,18.28
2023-04-10T11:11:28.833Z,18.28
2023-04-10T11:13:59.155Z,18.26
2023-04-10T11:16:37.251Z,18.24
2023-04-10T11:19:17.005Z,18.22
2023-04-10T11:22:10.511Z,18.20
2023-04-10T11:24:57.944Z,18.19
2023-04-10T11:27:53.352Z,18.18
2023-04-10T11:30:35.509Z,18.17
2023-04-10T11:33:07.656Z,18.16
2023-04-10T11:35:38.327Z,18.15
2023-04-10T11:38:19.690Z,18.15
2023-04-10T11:41:01.319Z,18.13
2023-04-10T11:43:32.181Z,18.11
2023-04-10T11:46:08.984Z,18.12
2023-04-10T11:48:39.888Z,18.09
2023-04-10T11:51:15.551Z,18.09
2023-04-10T11:53:46.415Z,18.06
2023-04-10T11:56:23.998Z,18.06
2023-04-10T11:58:55.875Z,18.06
2023-04-10T12:01:26.704Z,18.06
2023-04-10T12:03:57.342Z,18.04
2023-04-10T12:06:29.204Z,18.03
2023-04-10T12:08:59.686Z,18.02
2023-04-10T12:11:31.168Z,18.02
2023-04-10T12:14:01.607Z,18.00
2023-04-10T12:16:34.570Z,17.99
2023-04-10T12:19:05.126Z,17.98
2023-04-10T12:21:40.176Z,17.97
2023-04-10T12:24:10.602Z,17.97
2023-04-10T12:26:49.043Z,17.96
2023-04-10T12:29:20.637Z,17.95
2023-04-10T12:31:51.027Z,17.95
2023-04-10T12:34:21.773Z,17.94
2023-04-10T12:36:55.622Z,17.93
2023-04-10T12:39:28.313Z,17.94
2023-04-10T12:42:20.948Z,17.93
2023-04-10T12:44:54.321Z,17.91
2023-04-10T12:47:26.769Z,17.91
2023-04-10T12:50:15.866Z,17.89
2023-04-10T12:53:12.206Z,17.88
2023-04-10T12:55:58.688Z,17.87
2023-04-10T12:58:29.736Z,17.87
2023-04-10T13:01:15.658Z,17.86
2023-04-10T13:03:48.143Z,17.85
2023-04-10T13:06:18.418Z,17.84
2023-04-10T13:08:48.698Z,17.82
2023-04-10T13:11:19.204Z,17.81
2023-04-10T13:13:51.257Z,17.82
2023-04-10T13:16:21.957Z,17.81
2023-04-10T13:18:52.906Z,17.80
2023-04-10T13:21:27.593Z,17.77
2023-04-10T13:23:58.804Z,17.75
2023-04-10T13:26:29.576Z,17.76
2023-04-10T13:28:59.962Z,17.75
2023-04-10T13:31:30.493Z,17.74
2023-04-10T13:34:01.129Z,17.75
2023-04-10T13:36:33.311Z,17.74
2023-04-10T13:39:03.686Z,17.73
2023-04-10T13:41:34.034Z,17.72
2023-04-10T13:44:04.393Z,17.70
2023-04-10T13:46:35.616Z,17.68
2023-04-10T13:49:06.580Z,17.68
2023-04-10T13:51:37.053Z,17.67
2023-04-10T13:54:08.003Z,17.67
2023-04-10T13:56:38.715Z,17.68
2023-04-10T13:59:09.576Z,17.65
2023-04-10T14:01:40.597Z,17.65
2023-04-10T14:04:11.100Z,17.64
2023-04-10T14:06:42.243Z,17.63
2023-04-10T14:09:13.627Z,17.63
2023-04-10T14:11:43.971Z,17.62
2023-04-10T14:14:14.495Z,17.61
2023-04-10T14:16:44.929Z,17.61
2023-04-10T14:19:15.418Z,17.61
2023-04-10T14:21:46.425Z,17.59
2023-04-10T14:24:16.829Z,17.60
2023-04-10T14:26:47.205Z,17.58
2023-04-10T14:29:20.180Z,17.57
2023-04-10T14:31:57.891Z,17.57
2023-04-10T14:34:29.531Z,17.56
2023-04-10T14:37:00.282Z,17.55
2023-04-10T14:39:30.945Z,17.55
2023-04-10T14:42:03.580Z,17.52
2023-04-10T14:44:34.155Z,17.51
2023-04-10T14:47:07.665Z,17.52
2023-04-10T14:49:38.064Z,17.51
2023-04-10T14:52:08.644Z,17.50
2023-04-10T14:54:39.146Z,17.50
2023-04-10T14:57:11.296Z,17.49
2023-04-10T14:59:41.655Z,17.48
2023-04-10T15:02:12.124Z,17.48
2023-04-10T15:04:42.693Z,17.47
2023-04-10T15:07:13.076Z,17.46
2023-04-10T15:09:45.341Z,17.46
2023-04-10T15:12:15.715Z,17.46
2023-04-10T15:14:46.749Z,17.44
2023-04-10T15:17:17.259Z,17.43
2023-04-10T15:19:47.659Z,17.42
2023-04-10T15:22:21.041Z,17.41
2023-04-10T15:24:51.423Z,17.41
2023-04-10T15:27:24.968Z,17.40
2023-04-10T15:29:55.656Z,17.38
2023-04-10T15:32:26.092Z,17.38
2023-04-10T15:34:56.570Z,17.37
2023-04-10T15:37:26.961Z,17.38
2023-04-10T15:39:57.401Z,17.38
2023-04-10T15:42:27.800Z,17.36
2023-04-10T15:44:58.292Z,17.33
2023-04-10T15:47:29.426Z,17.33
2023-04-10T15:50:01.107Z,17.32
2023-04-10T15:52:33.225Z,17.32
2023-04-10T15:55:03.627Z,17.31
2023-04-10T15:57:34.546Z,17.32
2023-04-10T16:00:07.016Z,17.32
2023-04-10T16:02:37.625Z,17.30
2023-04-10T16:05:10.697Z,17.29
2023-04-10T16:07:45.011Z,17.30
2023-04-10T16:10:15.428Z,17.27
2023-04-10T16:12:45.753Z,17.29
2023-04-10T16:15:16.234Z,17.26
2023-04-10T16:17:46.909Z,17.27
2023-04-10T16:20:17.389Z,17.27
2023-04-10T16:22:47.931Z,17.26
2023-04-10T16:25:19.637Z,17.25
2023-04-10T16:27:55.890Z,17.25
2023-04-10T16:30:26.425Z,17.25
2023-04-10T16:32:57.585Z,17.24
2023-04-10T16:35:28.646Z,17.23
2023-04-10T16:37:58.931Z,17.24
2023-04-10T16:40:33.635Z,17.22
2023-04-10T16:43:04.651Z,17.19
2023-04-10T16:45:35.129Z,17.23
2023-04-10T16:48:05.730Z,17.21
2023-04-10T16:50:39.373Z,17.19
2023-04-10T16:53:09.977Z,17.19
2023-04-10T16:55:40.410Z,17.18
2023-04-10T16:58:10.925Z,17.18
2023-04-10T17:00:41.373Z,17.17
2023-04-10T17:03:12.786Z,17.18
2023-04-10T17:05:43.227Z,17.16
2023-04-10T17:08:14.596Z,17.18
2023-04-10T17:10:45.052Z,17.16
2023-04-10T17:13:15.353Z,17.13
2023-04-10T17:15:45.719Z,17.14
2023-04-10T17:18:16.677Z,17.15
2023-04-10T17:20:48.318Z,17.13
2023-04-10T17:23:19.015Z,17.11
2023-04-10T17:25:49.755Z,17.09
2023-04-10T17:28:20.502Z,17.12
2023-04-10T17:30:51.145Z,17.11
2023-04-10T17:33:23.192Z,17.12
2023-04-10T17:35:54.484Z,17.11
2023-04-10T17:38:25.618Z,17.11
2023-04-10T17:40:56.009Z,17.10
2023-04-10T17:43:26.557Z,17.11
2023-04-10T17:45:57.127Z,17.09
2023-04-10T17:48:27.680Z,17.08
2023-04-10T17:50:58.571Z,17.08
2023-04-10T17:53:29.040Z,17.06
2023-04-10T17:55:59.603Z,17.05
2023-04-10T17:58:29.947Z,17.07
2023-04-10T18:01:00.604Z,17.05
2023-04-10T18:03:30.984Z,17.03
2023-04-10T18:06:01.394Z,17.02
2023-04-10T18:08:31.893Z,17.03
2023-04-10T18:11:02.217Z,17.04
2023-04-10T18:13:32.585Z,17.03
2023-04-10T18:16:06.281Z,17.03
2023-04-10T18:18:37.377Z,17.03
2023-04-10T18:21:09.353Z,17.03
2023-04-10T18:23:40.970Z,17.01
2023-04-10T18:26:11.663Z,17.00
2023-04-10T18:28:43.593Z,17.01
2023-04-10T18:31:17.449Z,17.00
2023-04-10T18:33:56.198Z,17.00
2023-04-10T18:36:34.653Z,17.00
2023-04-10T18:39:06.235Z,16.99
2023-04-10T18:41:36.812Z,16.99
2023-04-10T18:44:07.825Z,16.98
2023-04-10T18:46:38.783Z,16.98
2023-04-10T18:49:09.339Z,16.98
2023-04-10T18:51:40.920Z,16.99
2023-04-10T18:54:11.360Z,16.99
2023-04-10T18:56:41.834Z,16.98
2023-04-10T18:59:12.285Z,16.99
2023-04-10T19:01:43.698Z,16.99
2023-04-10T19:04:14.752Z,16.99
2023-04-10T19:06:47.600Z,16.98
2023-04-10T19:09:18.187Z,16.99
2023-04-10T19:11:48.836Z,16.99
2023-04-10T19:14:19.225Z,16.98
2023-04-10T19:16:49.642Z,16.96
2023-04-10T19:19:19.786Z,16.96
2023-04-10T19:21:50.065Z,16.97
2023-04-10T19:24:20.679Z,16.95
2023-04-10T19:26:51.434Z,16.96
2023-04-10T19:29:22.606Z,16.95
2023-04-10T19:31:52.979Z,16.96
2023-04-10T19:34:23.336Z,16.95
2023-04-10T19:36:53.714Z,16.93
2023-04-10T19:39:24.167Z,16.92
2023-04-10T19:41:54.529Z,16.93
2023-04-10T19:44:25.005Z,16.94
2023-04-10T19:46:55.793Z,16.93
2023-04-10T19:49:27.235Z,16.92
2023-04-10T19:51:58.851Z,16.92
2023-04-10T19:54:31.279Z,16.92
2023-04-10T19:57:03.558Z,16.91
2023-04-10T19:59:33.958Z,16.90
2023-04-10T20:02:04.942Z,16.89
2023-04-10T20:04:35.826Z,16.89
2023-04-10T20:07:06.560Z,16.88
2023-04-10T20:09:37.241Z,16.88
2023-04-10T20:12:07.973Z,16.88
2023-04-10T20:14:38.450Z,16.88
2023-04-10T20:17:09.704Z,16.88
2023-04-10T20:19:40.405Z,16.87
2023-04-10T20:22:11.388Z,16.86
2023-04-10T20:24:41.923Z,16.86
2023-04-10T20:27:12.251Z,16.86
2023-04-10T20:29:42.738Z,16.86
2023-04-10T20:32:13.168Z,16.84
2023-04-10T20:34:43.820Z,16.84
2023-04-10T20:37:16.325Z,16.84
2023-04-10T20:39:47.932Z,16.86
2023-04-10T20:42:18.699Z,16.84
2023-04-10T20:44:49.733Z,16.84
2023-04-10T20:47:20.177Z,16.83
2023-04-10T20:49:50.686Z,16.83
2023-04-10T20:52:21.418Z,16.82
2023-04-10T20:54:51.836Z,16.81
2023-04-10T20:57:22.431Z,16.81
2023-04-10T20:59:52.961Z,16.80
2023-04-10T21:02:23.498Z,16.78
2023-04-10T21:04:54.731Z,16.78
2023-04-10T21:07:25.065Z,16.78
2023-04-10T21:09:55.445Z,16.77
2023-04-10T21:12:26.207Z,16.77
2023-04-10T21:14:56.707Z,16.76
2023-04-10T21:17:32.474Z,16.78
2023-04-10T21:20:03.199Z,16.75
2023-04-10T21:22:33.709Z,16.76
2023-04-10T21:25:03.943Z,16.76
2023-04-10T21:27:34.323Z,16.76
2023-04-10T21:30:05.118Z,16.76
2023-04-10T21:32:35.731Z,16.76
2023-04-10T21:35:06.282Z,16.75
2023-04-10T21:37:36.745Z,16.75
2023-04-10T21:40:07.698Z,16.75
2023-04-10T21:42:41.840Z,16.76
2023-04-10T21:45:13.393Z,16.74
2023-04-10T21:47:44.194Z,16.74
2023-04-10T21:50:14.657Z,16.73
2023-04-10T21:52:45.846Z,16.75
2023-04-10T21:55:17.525Z,16.73
2023-04-10T21:57:47.881Z,16.75
2023-04-10T22:00:21.196Z,16.73
2023-04-10T22:02:53.740Z,16.73
2023-04-10T22:05:25.842Z,16.73
2023-04-10T22:07:57.017Z,16.74
2023-04-10T22:10:27.636Z,16.74
2023-04-10T22:12:58.092Z,16.73
2023-04-10T22:15:29.081Z,16.72
2023-04-10T22:17:59.842Z,16.74
2023-04-10T22:20:30.514Z,16.73
2023-04-10T22:23:01.682Z,16.74
2023-04-10T22:25:32.453Z,16.75
2023-04-10T22:28:02.983Z,16.77
2023-04-10T22:30:33.800Z,16.80
2023-04-10T22:33:04.470Z,16.87
2023-04-10T22:35:35.159Z,17.02
2023-04-10T22:38:05.708Z,17.17
2023-04-10T22:40:37.242Z,17.27
2023-04-10T22:43:07.854Z,17.37
2023-04-10T22:45:38.281Z,17.47
2023-04-10T22:48:08.830Z,17.55
2023-04-10T22:50:39.826Z,17.58
2023-04-10T22:53:14.851Z,17.49
2023-04-10T22:55:45.207Z,17.43
2023-04-10T22:58:15.786Z,17.42
2023-04-10T23:00:46.222Z,17.42
2023-04-10T23:03:16.847Z,17.39
2023-04-10T23:05:48.474Z,17.41
2023-04-10T23:08:20.109Z,17.45
2023-04-10T23:10:50.811Z,17.51
2023-04-10T23:13:21.193Z,17.58
2023-04-10T23:15:55.898Z,17.55
2023-04-10T23:18:26.864Z,17.54
2023-04-10T23:20:57.127Z,17.57
2023-04-10T23:23:27.769Z,17.57
2023-04-10T23:26:04.302Z,17.60
2023-04-10T23:28:35.794Z,17.62
2023-04-10T23:31:08.716Z,17.64
2023-04-10T23:33:41.227Z,17.66
2023-04-10T23:36:12.825Z,17.69
2023-04-10T23:38:46.306Z,17.72
2023-04-10T23:41:17.074Z,17.73
2023-04-10T23:43:47.481Z,17.75
2023-04-10T23:46:18.952Z,17.77
2023-04-10T23:48:50.689Z,17.81
2023-04-10T23:51:22.330Z,17.82
2023-04-10T23:53:52.830Z,17.84
2023-04-10T23:56:29.517Z,17.85
2023-04-10T23:59:00.756Z,17.85
